createdAt,value
2023-03-05T00:00:43.150Z,4.17
2023-03-05T00:01:35.023Z,4.15
2023-03-05T00:02:26.488Z,4.13
2023-03-05T00:03:18.026Z,4.11
2023-03-05T00:04:14.606Z,4.07
2023-03-05T00:05:06.513Z,4.09
2023-03-05T00:05:58.042Z,4.07
2023-03-05T00:06:49.502Z,4.10
2023-03-05T00:07:41.000Z,4.07
2023-03-05T00:08:32.768Z,4.05
2023-03-05T00:09:24.414Z,4.05
2023-03-05T00:10:16.020Z,4.03
2023-03-05T00:11:11.734Z,4.02
2023-03-05T00:12:03.432Z,4.02
2023-03-05T00:12:55.066Z,4.02
2023-03-05T00:13:47.651Z,4.02
2023-03-05T00:14:39.382Z,4.01
2023-03-05T00:15:30.799Z,4.04
2023-03-05T00:16:23.366Z,4.06
2023-03-05T00:17:14.803Z,4.02
2023-03-05T00:18:06.543Z,4.00
2023-03-05T00:19:00.025Z,3.97
2023-03-05T00:19:51.512Z,3.95
2023-03-05T00:20:43.278Z,3.95
2023-03-05T00:21:38.301Z,3.98
2023-03-05T00:22:29.719Z,3.98
2023-03-05T00:23:21.499Z,3.95
2023-03-05T00:24:16.685Z,3.92
2023-03-05T00:25:08.837Z,3.94
2023-03-05T00:26:05.379Z,3.93
2023-03-05T00:26:56.836Z,3.87
2023-03-05T00:27:48.315Z,3.89
2023-03-05T00:28:39.876Z,3.91
2023-03-05T00:29:31.803Z,3.89
2023-03-05T00:30:23.545Z,3.88
2023-03-05T00:31:15.145Z,3.86
2023-03-05T00:32:06.684Z,3.86
2023-03-05T00:32:58.515Z,3.89
2023-03-05T00:33:55.052Z,3.87
2023-03-05T00:34:49.701Z,3.89
2023-03-05T00:35:43.761Z,3.90
2023-03-05T00:36:40.111Z,3.89
2023-03-05T00:37:31.836Z,3.90
2023-03-05T00:38:23.986Z,3.90
2023-03-05T00:39:17.389Z,3.87
2023-03-05T00:40:09.851Z,3.85
2023-03-05T00:41:01.691Z,3.82
2023-03-05T00:41:53.504Z,3.80
2023-03-05T00:42:45.618Z,3.79
2023-03-05T00:43:37.069Z,3.78
2023-03-05T00:44:28.530Z,3.77
2023-03-05T00:45:19.944Z,3.78
2023-03-05T00:46:11.483Z,3.76
2023-03-05T00:47:04.905Z,3.76
2023-03-05T00:47:56.773Z,3.78
2023-03-05T00:48:48.525Z,3.81
2023-03-05T00:49:40.156Z,3.78
2023-03-05T00:50:31.905Z,3.79
2023-03-05T00:51:25.842Z,3.81
2023-03-05T00:52:17.276Z,3.80
2023-03-05T00:53:08.745Z,3.82
2023-03-05T00:54:00.465Z,3.80
2023-03-05T00:54:52.158Z,3.78
2023-03-05T00:55:43.825Z,3.77
2023-03-05T00:56:35.725Z,3.74
2023-03-05T00:57:27.159Z,3.75
2023-03-05T00:58:18.621Z,3.73
2023-03-05T00:59:10.411Z,3.72
2023-03-05T01:00:03.904Z,3.74
2023-03-05T01:01:00.540Z,3.71
2023-03-05T01:01:52.346Z,3.69
2023-03-05T01:02:44.088Z,3.70
2023-03-05T01:03:36.075Z,3.70
2023-03-05T01:04:27.675Z,3.69
2023-03-05T01:05:19.208Z,3.68
2023-03-05T01:06:13.779Z,3.69
2023-03-05T01:07:05.260Z,3.70
2023-03-05T01:07:57.723Z,3.70
2023-03-05T01:08:49.430Z,3.77
2023-03-05T01:09:40.877Z,3.77
2023-03-05T01:10:32.445Z,3.76
2023-03-05T01:11:25.351Z,3.78
2023-03-05T01:12:17.054Z,3.77
2023-03-05T01:13:09.515Z,3.73
2023-03-05T01:14:00.954Z,3.72
2023-03-05T01:14:53.453Z,3.72
2023-03-05T01:15:47.886Z,3.72
2023-03-05T01:16:39.388Z,3.72
2023-03-05T01:17:31.249Z,3.71
2023-03-05T01:18:23.274Z,3.68
2023-03-05T01:19:16.542Z,3.68
2023-03-05T01:20:08.840Z,3.68
2023-03-05T01:21:01.082Z,3.66
2023-03-05T01:21:52.756Z,3.67
2023-03-05T01:22:44.416Z,3.68
2023-03-05T01:23:37.308Z,3.65
2023-03-05T01:24:31.238Z,3.62
2023-03-05T01:25:22.660Z,3.65
2023-03-05T01:26:14.390Z,3.65
2023-03-05T01:27:05.902Z,3.63
2023-03-05T01:27:57.483Z,3.65
2023-03-05T01:28:49.292Z,3.69
2023-03-05T01:29:40.758Z,3.70
2023-03-05T01:30:32.302Z,3.75
2023-03-05T01:31:24.243Z,3.70
2023-03-05T01:32:15.966Z,3.72
2023-03-05T01:33:07.631Z,3.67
2023-03-05T01:34:00.391Z,3.69
2023-03-05T01:34:52.439Z,3.71
2023-03-05T01:35:49.645Z,3.71
2023-03-05T01:36:42.488Z,3.71
2023-03-05T01:37:34.475Z,3.74
2023-03-05T01:38:26.022Z,3.72
2023-03-05T01:39:17.599Z,3.70
2023-03-05T01:40:11.017Z,3.71
2023-03-05T01:41:02.510Z,3.68
2023-03-05T01:41:54.010Z,3.71
2023-03-05T01:42:48.044Z,3.75
2023-03-05T01:43:40.776Z,3.73
2023-03-05T01:44:33.880Z,3.67
2023-03-05T01:45:25.564Z,3.67
2023-03-05T01:46:35.304Z,3.65
2023-03-05T01:47:26.738Z,3.63
2023-03-05T01:48:18.219Z,3.62
2023-03-05T01:49:19.034Z,3.67
2023-03-05T01:50:16.543Z,3.67
2023-03-05T01:51:08.587Z,3.69
2023-03-05T01:52:19.695Z,3.64
2023-03-05T01:53:11.443Z,3.60
2023-03-05T01:54:07.182Z,3.60
2023-03-05T01:55:10.497Z,3.63
2023-03-05T01:56:02.717Z,3.64
2023-03-05T01:56:59.283Z,3.66
2023-03-05T01:57:59.290Z,3.72
2023-03-05T01:58:53.373Z,3.70
2023-03-05T01:59:50.165Z,3.75
2023-03-05T02:00:47.169Z,3.74
2023-03-05T02:01:43.851Z,3.70
2023-03-05T02:02:35.948Z,3.66
2023-03-05T02:03:27.956Z,3.67
2023-03-05T02:04:23.667Z,3.69
2023-03-05T02:05:30.186Z,3.65
2023-03-05T02:06:21.729Z,3.65
2023-03-05T02:07:16.756Z,3.67
2023-03-05T02:08:11.459Z,3.62
2023-03-05T02:09:03.430Z,3.65
2023-03-05T02:09:54.927Z,3.62
2023-03-05T02:10:50.301Z,3.58
2023-03-05T02:11:43.125Z,3.67
2023-03-05T02:12:35.020Z,3.62
2023-03-05T02:13:31.620Z,3.63
2023-03-05T02:14:24.273Z,3.63
2023-03-05T02:15:16.822Z,3.60
2023-03-05T02:16:08.700Z,3.60
2023-03-05T02:17:00.490Z,3.62
2023-03-05T02:17:52.219Z,3.66
2023-03-05T02:18:43.699Z,3.64
2023-03-05T02:19:53.144Z,3.62
2023-03-05T02:20:56.430Z,3.57
2023-03-05T02:21:50.468Z,3.55
2023-03-05T02:22:43.289Z,3.58
2023-03-05T02:23:37.529Z,3.57
2023-03-05T02:24:36.715Z,3.52
2023-03-05T02:25:30.084Z,3.60
2023-03-05T02:26:21.645Z,3.57
2023-03-05T02:27:14.733Z,3.54
2023-03-05T02:28:28.552Z,3.51
2023-03-05T02:29:21.020Z,3.47
2023-03-05T02:30:13.264Z,3.48
2023-03-05T02:31:16.954Z,3.50
2023-03-05T02:32:09.385Z,3.55
2023-03-05T02:33:00.986Z,3.52
2023-03-05T02:33:58.506Z,3.52
2023-03-05T02:34:50.770Z,3.52
2023-03-05T02:35:43.930Z,3.53
2023-03-05T02:36:35.380Z,3.51
2023-03-05T02:37:27.193Z,3.50
2023-03-05T02:38:21.209Z,3.50
2023-03-05T02:39:12.952Z,3.46
2023-03-05T02:40:05.012Z,3.45
2023-03-05T02:40:56.639Z,3.45
2023-03-05T02:41:48.557Z,3.48
2023-03-05T02:42:40.312Z,3.53
2023-03-05T02:43:32.340Z,3.52
2023-03-05T02:44:23.814Z,3.52
2023-03-05T02:45:15.490Z,3.55
2023-03-05T02:46:07.885Z,3.50
2023-03-05T02:46:59.344Z,3.49
2023-03-05T02:47:50.845Z,3.55
2023-03-05T02:48:42.542Z,3.57
2023-03-05T02:49:36.880Z,3.53
2023-03-05T02:50:30.688Z,3.49
2023-03-05T02:51:22.152Z,3.50
2023-03-05T02:52:13.656Z,3.49
2023-03-05T02:53:06.533Z,3.45
2023-03-05T02:53:58.069Z,3.42
2023-03-05T02:54:52.913Z,3.43
2023-03-05T02:55:47.534Z,3.51
2023-03-05T02:56:39.782Z,3.50
2023-03-05T02:57:31.316Z,3.48
2023-03-05T02:58:22.756Z,3.45
2023-03-05T02:59:14.189Z,3.41
2023-03-05T03:00:06.613Z,3.37
2023-03-05T03:00:58.476Z,3.33
2023-03-05T03:01:49.926Z,3.34
2023-03-05T03:02:41.360Z,3.33
2023-03-05T03:03:33.196Z,3.38
2023-03-05T03:04:24.742Z,3.41
2023-03-05T03:05:16.571Z,3.37
2023-03-05T03:06:08.300Z,3.35
2023-03-05T03:07:00.030Z,3.32
2023-03-05T03:07:52.276Z,3.34
2023-03-05T03:08:43.707Z,3.35
2023-03-05T03:09:35.980Z,3.38
2023-03-05T03:10:27.648Z,3.39
2023-03-05T03:11:19.245Z,3.42
2023-03-05T03:12:11.790Z,3.40
2023-03-05T03:13:04.533Z,3.37
2023-03-05T03:13:56.202Z,3.37
2023-03-05T03:14:47.920Z,3.34
2023-03-05T03:15:40.370Z,3.32
2023-03-05T03:16:34.226Z,3.34
2023-03-05T03:17:25.695Z,3.32
2023-03-05T03:18:17.149Z,3.31
2023-03-05T03:19:09.793Z,3.29
2023-03-05T03:20:02.660Z,3.34
2023-03-05T03:20:54.090Z,3.33
2023-03-05T03:21:45.582Z,3.32
2023-03-05T03:22:37.433Z,3.29
2023-03-05T03:23:29.687Z,3.33
2023-03-05T03:24:21.304Z,3.33
2023-03-05T03:25:19.326Z,3.34
2023-03-05T03:26:10.797Z,3.32
2023-03-05T03:27:03.992Z,3.36
2023-03-05T03:27:55.932Z,3.33
2023-03-05T03:28:47.728Z,3.37
2023-03-05T03:29:39.596Z,3.43
2023-03-05T03:30:31.212Z,3.43
2023-03-05T03:31:22.917Z,3.39
2023-03-05T03:32:15.303Z,3.37
2023-03-05T03:33:07.303Z,3.37
2023-03-05T03:33:59.013Z,3.36
2023-03-05T03:34:50.470Z,3.30
2023-03-05T03:35:41.916Z,3.26
2023-03-05T03:36:34.808Z,3.24
2023-03-05T03:37:26.532Z,3.24
2023-03-05T03:38:18.023Z,3.24
2023-03-05T03:39:11.306Z,3.24
2023-03-05T03:40:05.457Z,3.25
2023-03-05T03:40:57.086Z,3.24
2023-03-05T03:41:51.196Z,3.28
2023-03-05T03:42:42.959Z,3.35
2023-03-05T03:43:36.011Z,3.39
2023-03-05T03:44:27.713Z,3.34
2023-03-05T03:45:22.054Z,3.28
2023-03-05T03:46:13.585Z,3.25
2023-03-05T03:47:05.285Z,3.22
2023-03-05T03:47:56.997Z,3.20
2023-03-05T03:48:50.717Z,3.16
2023-03-05T03:49:42.214Z,3.16
2023-03-05T03:50:33.726Z,3.14
2023-03-05T03:51:25.246Z,3.13
2023-03-05T03:52:17.264Z,3.12
2023-03-05T03:53:12.797Z,3.12
2023-03-05T03:54:04.433Z,3.10
2023-03-05T03:55:01.432Z,3.10
2023-03-05T03:55:58.441Z,3.11
2023-03-05T03:56:50.825Z,3.10
2023-03-05T03:57:43.482Z,3.11
2023-03-05T03:58:34.958Z,3.09
2023-03-05T03:59:26.768Z,3.10
2023-03-05T04:00:18.936Z,3.09
2023-03-05T04:01:10.384Z,3.09
2023-03-05T04:02:02.238Z,3.09
2023-03-05T04:02:53.718Z,3.11
2023-03-05T04:03:45.309Z,3.11
2023-03-05T04:04:37.176Z,3.11
2023-03-05T04:05:28.647Z,3.14
2023-03-05T04:06:20.121Z,3.12
2023-03-05T04:07:11.976Z,3.10
2023-03-05T04:08:03.853Z,3.10
2023-03-05T04:08:55.383Z,3.09
2023-03-05T04:09:46.888Z,3.09
2023-03-05T04:10:42.290Z,3.12
2023-03-05T04:11:35.613Z,3.10
2023-03-05T04:12:27.125Z,3.09
2023-03-05T04:13:18.804Z,3.08
2023-03-05T04:14:10.244Z,3.07
2023-03-05T04:15:01.752Z,3.07
2023-03-05T04:15:54.024Z,3.06
2023-03-05T04:16:45.720Z,3.08
2023-03-05T04:17:37.499Z,3.09
2023-03-05T04:18:29.787Z,3.10
2023-03-05T04:19:22.895Z,3.11
2023-03-05T04:20:14.365Z,3.13
2023-03-05T04:21:08.059Z,3.13
2023-03-05T04:21:59.766Z,3.11
2023-03-05T04:22:51.308Z,3.11
2023-03-05T04:23:42.900Z,3.10
2023-03-05T04:24:34.314Z,3.12
2023-03-05T04:25:26.041Z,3.14
2023-03-05T04:26:17.506Z,3.15
2023-03-05T04:27:09.338Z,3.18
2023-03-05T04:28:01.108Z,3.22
2023-03-05T04:28:52.830Z,3.20
2023-03-05T04:29:44.682Z,3.19
2023-03-05T04:30:36.252Z,3.25
2023-03-05T04:31:27.727Z,3.30
2023-03-05T04:32:23.368Z,3.30
2023-03-05T04:33:15.108Z,3.32
2023-03-05T04:34:06.655Z,3.27
2023-03-05T04:34:58.963Z,3.27
2023-03-05T04:35:51.286Z,3.26
2023-03-05T04:36:43.175Z,3.23
2023-03-05T04:37:37.251Z,3.18
2023-03-05T04:38:28.631Z,3.18
2023-03-05T04:39:20.912Z,3.18
2023-03-05T04:40:12.789Z,3.19
2023-03-05T04:41:05.745Z,3.16
2023-03-05T04:41:57.452Z,3.12
2023-03-05T04:42:49.339Z,3.14
2023-03-05T04:43:40.763Z,3.11
2023-03-05T04:44:32.410Z,3.09
2023-03-05T04:45:24.028Z,3.18
2023-03-05T04:46:15.771Z,3.16
2023-03-05T04:47:07.207Z,3.14
2023-03-05T04:48:00.795Z,3.11
2023-03-05T04:48:52.264Z,3.09
2023-03-05T04:49:44.621Z,3.09
2023-03-05T04:50:36.445Z,3.12
2023-03-05T04:51:27.913Z,3.09
2023-03-05T04:52:19.518Z,3.09
2023-03-05T04:53:11.117Z,3.07
2023-03-05T04:54:02.590Z,3.08
2023-03-05T04:54:54.447Z,3.13
2023-03-05T04:55:46.207Z,3.12
2023-03-05T04:56:37.923Z,3.10
2023-03-05T04:57:29.368Z,3.09
2023-03-05T04:58:20.933Z,3.07
2023-03-05T04:59:12.520Z,3.04
2023-03-05T05:00:07.838Z,3.02
2023-03-05T05:01:04.541Z,2.98
2023-03-05T05:01:56.474Z,2.97
2023-03-05T05:02:50.477Z,2.99
2023-03-05T05:03:42.082Z,2.99
2023-03-05T05:04:35.995Z,3.01
2023-03-05T05:05:29.039Z,3.03
2023-03-05T05:06:20.555Z,2.99
2023-03-05T05:07:13.036Z,2.96
2023-03-05T05:08:04.855Z,2.97
2023-03-05T05:08:56.508Z,2.93
2023-03-05T05:09:47.987Z,2.88
2023-03-05T05:10:40.001Z,2.88
2023-03-05T05:11:31.450Z,2.88
2023-03-05T05:12:23.236Z,2.87
2023-03-05T05:13:14.732Z,2.96
2023-03-05T05:14:06.448Z,2.97
2023-03-05T05:14:58.039Z,2.93
2023-03-05T05:15:49.803Z,2.87
2023-03-05T05:16:41.285Z,2.87
2023-03-05T05:17:34.193Z,2.84
2023-03-05T05:18:27.326Z,2.87
2023-03-05T05:19:19.080Z,2.91
2023-03-05T05:20:13.143Z,2.89
2023-03-05T05:21:13.663Z,2.85
2023-03-05T05:22:05.383Z,2.86
2023-03-05T05:22:56.800Z,2.85
2023-03-05T05:23:48.226Z,2.85
2023-03-05T05:24:39.734Z,2.83
2023-03-05T05:25:31.257Z,2.86
2023-03-05T05:26:22.973Z,2.85
2023-03-05T05:27:14.415Z,2.82
2023-03-05T05:28:05.986Z,2.83
2023-03-05T05:28:57.402Z,2.86
2023-03-05T05:29:52.907Z,2.85
2023-03-05T05:30:45.446Z,2.84
2023-03-05T05:31:36.917Z,2.83
2023-03-05T05:32:28.729Z,2.82
2023-03-05T05:33:20.961Z,2.80
2023-03-05T05:34:12.412Z,2.81
2023-03-05T05:35:04.091Z,2.81
2023-03-05T05:35:55.629Z,2.78
2023-03-05T05:36:47.353Z,2.77
2023-03-05T05:37:38.932Z,2.76
2023-03-05T05:38:30.656Z,2.78
2023-03-05T05:39:22.382Z,2.75
2023-03-05T05:40:14.310Z,2.76
2023-03-05T05:41:10.220Z,2.74
2023-03-05T05:42:01.741Z,2.76
2023-03-05T05:42:53.821Z,2.75
2023-03-05T05:43:45.757Z,2.75
2023-03-05T05:44:37.244Z,2.77
2023-03-05T05:45:28.983Z,2.79
2023-03-05T05:46:22.726Z,2.81
2023-03-05T05:47:18.326Z,2.80
2023-03-05T05:48:10.078Z,2.80
2023-03-05T05:49:01.705Z,2.80
2023-03-05T05:49:53.225Z,2.81
2023-03-05T05:50:44.946Z,2.81
2023-03-05T05:51:36.445Z,2.81
2023-03-05T05:52:27.887Z,2.80
2023-03-05T05:53:19.300Z,2.80
2023-03-05T05:54:14.982Z,2.81
2023-03-05T05:55:07.351Z,2.82
2023-03-05T05:55:59.029Z,2.83
2023-03-05T05:56:50.687Z,2.84
2023-03-05T05:57:42.340Z,2.84
2023-03-05T05:58:34.081Z,2.83
2023-03-05T05:59:25.887Z,2.83
2023-03-05T06:00:17.887Z,2.82
2023-03-05T06:01:36.244Z,2.81
2023-03-05T06:02:27.754Z,2.85
2023-03-05T06:03:19.269Z,2.82
2023-03-05T06:04:10.703Z,2.83
2023-03-05T06:05:02.297Z,2.83
2023-03-05T06:05:54.054Z,2.79
2023-03-05T06:06:45.785Z,2.78
2023-03-05T06:07:37.351Z,2.76
2023-03-05T06:08:28.805Z,2.82
2023-03-05T06:09:20.806Z,2.81
2023-03-05T06:10:12.690Z,2.78
2023-03-05T06:11:04.952Z,2.76
2023-03-05T06:11:56.659Z,2.74
2023-03-05T06:12:48.114Z,2.76
2023-03-05T06:13:40.207Z,2.78
2023-03-05T06:14:31.727Z,2.81
2023-03-05T06:15:24.618Z,2.78
2023-03-05T06:16:19.163Z,2.76
2023-03-05T06:17:12.857Z,2.76
2023-03-05T06:18:06.615Z,2.77
2023-03-05T06:18:58.436Z,2.74
2023-03-05T06:19:49.854Z,2.74
2023-03-05T06:20:41.679Z,2.71
2023-03-05T06:21:34.005Z,2.71
2023-03-05T06:22:25.896Z,2.70
2023-03-05T06:23:17.389Z,2.73
2023-03-05T06:24:10.059Z,2.77
2023-03-05T06:25:01.554Z,2.74
2023-03-05T06:25:53.632Z,2.75
2023-03-05T06:26:46.701Z,2.75
2023-03-05T06:27:39.527Z,2.71
2023-03-05T06:28:31.938Z,2.72
2023-03-05T06:29:23.671Z,2.73
2023-03-05T06:30:15.616Z,2.72
2023-03-05T06:31:10.993Z,2.73
2023-03-05T06:32:02.484Z,2.75
2023-03-05T06:32:53.966Z,2.79
2023-03-05T06:33:45.915Z,2.78
2023-03-05T06:34:37.368Z,2.79
2023-03-05T06:35:29.075Z,2.77
2023-03-05T06:36:22.665Z,2.79
2023-03-05T06:37:14.458Z,2.81
2023-03-05T06:38:07.675Z,2.81
2023-03-05T06:38:59.882Z,2.82
2023-03-05T06:39:51.471Z,2.83
2023-03-05T06:40:42.987Z,2.85
2023-03-05T06:41:34.827Z,2.83
2023-03-05T06:42:26.557Z,2.84
2023-03-05T06:43:18.343Z,2.83
2023-03-05T06:44:10.563Z,2.82
2023-03-05T06:45:02.411Z,2.82
2023-03-05T06:46:15.310Z,2.84
2023-03-05T06:47:09.256Z,2.85
2023-03-05T06:48:00.748Z,2.84
2023-03-05T06:48:54.717Z,2.86
2023-03-05T06:49:47.356Z,2.86
2023-03-05T06:50:40.127Z,2.88
2023-03-05T06:51:34.982Z,2.89
2023-03-05T06:52:26.626Z,2.91
2023-03-05T06:53:18.056Z,2.93
2023-03-05T06:54:13.399Z,2.98
2023-03-05T06:55:05.059Z,2.98
2023-03-05T06:55:56.825Z,2.98
2023-03-05T06:56:48.343Z,3.01
2023-03-05T06:57:39.809Z,3.02
2023-03-05T06:58:31.489Z,3.02
2023-03-05T06:59:23.376Z,3.04
2023-03-05T07:00:15.650Z,3.06
2023-03-05T07:01:07.770Z,3.08
2023-03-05T07:01:59.231Z,3.05
2023-03-05T07:02:50.943Z,3.07
2023-03-05T07:03:42.836Z,3.09
2023-03-05T07:04:34.330Z,3.09
2023-03-05T07:05:25.748Z,3.12
2023-03-05T07:06:18.063Z,3.15
2023-03-05T07:07:09.713Z,3.13
2023-03-05T07:08:01.492Z,3.17
2023-03-05T07:08:56.498Z,3.17
2023-03-05T07:09:50.471Z,3.17
2023-03-05T07:10:43.820Z,3.15
2023-03-05T07:11:35.814Z,3.15
2023-03-05T07:12:27.237Z,3.16
2023-03-05T07:13:18.757Z,3.18
2023-03-05T07:14:10.275Z,3.25
2023-03-05T07:15:02.020Z,3.26
2023-03-05T07:15:54.391Z,3.26
2023-03-05T07:16:46.061Z,3.30
2023-03-05T07:17:37.612Z,3.31
2023-03-05T07:18:29.039Z,3.33
2023-03-05T07:19:20.451Z,3.35
2023-03-05T07:20:12.507Z,3.34
2023-03-05T07:21:06.099Z,3.36
2023-03-05T07:21:57.539Z,3.39
2023-03-05T07:22:49.277Z,3.43
2023-03-05T07:23:40.860Z,3.43
2023-03-05T07:24:32.603Z,3.44
2023-03-05T07:25:24.459Z,3.45
2023-03-05T07:26:16.376Z,3.47
2023-03-05T07:27:08.053Z,3.48
2023-03-05T07:27:59.816Z,3.52
2023-03-05T07:28:51.881Z,3.57
2023-03-05T07:29:43.493Z,3.60
2023-03-05T07:30:34.996Z,3.63
2023-03-05T07:31:31.071Z,3.65
2023-03-05T07:32:22.608Z,3.64
2023-03-05T07:33:14.049Z,3.67
2023-03-05T07:34:06.414Z,3.67
2023-03-05T07:34:57.875Z,3.67
2023-03-05T07:35:49.661Z,3.71
2023-03-05T07:36:42.262Z,3.72
2023-03-05T07:37:34.211Z,3.70
2023-03-05T07:38:25.687Z,3.70
2023-03-05T07:39:19.139Z,3.69
2023-03-05T07:40:11.497Z,3.66
2023-03-05T07:41:09.545Z,3.64
2023-03-05T07:42:01.055Z,3.59
2023-03-05T07:43:01.905Z,3.57
2023-03-05T07:43:58.200Z,3.61
2023-03-05T07:44:50.001Z,3.65
2023-03-05T07:45:43.543Z,3.66
2023-03-05T07:46:36.179Z,3.68
2023-03-05T07:47:27.850Z,3.69
2023-03-05T07:48:20.951Z,3.68
2023-03-05T07:49:12.465Z,3.70
2023-03-05T07:50:04.560Z,3.69
2023-03-05T07:51:08.656Z,3.70
2023-03-05T07:52:00.121Z,3.72
2023-03-05T07:52:51.912Z,3.75
2023-03-05T07:53:44.973Z,3.75
2023-03-05T07:54:39.291Z,3.78
2023-03-05T07:55:30.810Z,3.80
2023-03-05T07:56:48.734Z,3.82
2023-03-05T07:57:40.206Z,3.83
2023-03-05T07:58:32.036Z,3.80
2023-03-05T07:59:23.504Z,3.82
2023-03-05T08:00:15.445Z,3.84
2023-03-05T08:01:13.996Z,3.85
2023-03-05T08:02:06.386Z,3.89
2023-03-05T08:02:57.842Z,3.88
2023-03-05T08:03:49.518Z,3.91
2023-03-05T08:04:43.074Z,3.95
2023-03-05T08:05:34.745Z,3.92
2023-03-05T08:06:26.380Z,3.94
2023-03-05T08:07:18.137Z,3.83
2023-03-05T08:08:10.084Z,3.87
2023-03-05T08:09:01.514Z,3.85
2023-03-05T08:09:53.327Z,3.84
2023-03-05T08:10:45.034Z,3.78
2023-03-05T08:11:36.507Z,3.83
2023-03-05T08:12:29.134Z,3.81
2023-03-05T08:13:20.823Z,3.85
2023-03-05T08:14:12.531Z,3.85
2023-03-05T08:15:04.188Z,3.86
2023-03-05T08:15:55.745Z,3.90
2023-03-05T08:16:48.499Z,3.92
2023-03-05T08:17:40.191Z,3.94
2023-03-05T08:18:31.955Z,3.88
2023-03-05T08:19:23.553Z,3.91
2023-03-05T08:20:15.272Z,3.92
2023-03-05T08:21:15.352Z,3.90
2023-03-05T08:22:06.804Z,3.92
2023-03-05T08:22:58.246Z,3.94
2023-03-05T08:23:49.957Z,3.91
2023-03-05T08:24:42.955Z,3.92
2023-03-05T08:25:34.678Z,3.89
2023-03-05T08:26:29.059Z,3.88
2023-03-05T08:27:20.825Z,3.83
2023-03-05T08:28:12.249Z,3.83
2023-03-05T08:29:05.929Z,3.84
2023-03-05T08:29:57.695Z,3.82
2023-03-05T08:30:49.708Z,3.86
2023-03-05T08:31:46.134Z,3.85
2023-03-05T08:32:37.690Z,3.88
2023-03-05T08:33:31.330Z,3.87
2023-03-05T08:34:23.647Z,3.89
2023-03-05T08:35:15.223Z,3.94
2023-03-05T08:36:08.451Z,3.98
2023-03-05T08:37:00.291Z,4.05
2023-03-05T08:37:51.806Z,4.10
2023-03-05T08:38:44.695Z,4.11
2023-03-05T08:39:36.756Z,4.09
2023-03-05T08:40:28.365Z,4.12
2023-03-05T08:41:19.863Z,4.17
2023-03-05T08:42:11.388Z,4.21
2023-03-05T08:43:04.843Z,4.18
2023-03-05T08:43:56.722Z,4.23
2023-03-05T08:44:48.445Z,4.23
2023-03-05T08:45:40.317Z,4.30
2023-03-05T08:46:31.800Z,4.34
2023-03-05T08:47:25.626Z,4.38
2023-03-05T08:48:17.104Z,4.44
2023-03-05T08:49:09.698Z,4.41
2023-03-05T08:50:01.293Z,4.43
2023-03-05T08:50:53.166Z,4.46
2023-03-05T08:51:44.615Z,4.45
2023-03-05T08:52:36.100Z,4.42
2023-03-05T08:53:27.709Z,4.44
2023-03-05T08:54:19.186Z,4.42
2023-03-05T08:55:12.805Z,4.42
2023-03-05T08:56:05.036Z,4.39
2023-03-05T08:56:56.472Z,4.37
2023-03-05T08:57:47.900Z,4.32
2023-03-05T08:58:39.709Z,4.33
2023-03-05T08:59:31.335Z,4.31
2023-03-05T09:00:23.018Z,4.29
2023-03-05T09:01:15.044Z,4.29
2023-03-05T09:02:07.185Z,4.28
2023-03-05T09:02:58.776Z,4.31
2023-03-05T09:03:51.365Z,4.29
2023-03-05T09:04:42.807Z,4.34
2023-03-05T09:05:37.646Z,4.37
2023-03-05T09:06:30.258Z,4.40
2023-03-05T09:07:21.691Z,4.40
2023-03-05T09:08:14.148Z,4.37
2023-03-05T09:09:07.524Z,4.35
2023-03-05T09:09:59.237Z,4.31
2023-03-05T09:10:50.692Z,4.28
2023-03-05T09:11:42.336Z,4.20
2023-03-05T09:12:34.020Z,4.17
2023-03-05T09:13:25.552Z,4.24
2023-03-05T09:14:17.069Z,4.26
2023-03-05T09:15:10.458Z,4.22
2023-03-05T09:16:06.353Z,4.17
2023-03-05T09:16:58.351Z,4.27
2023-03-05T09:17:49.880Z,4.35
2023-03-05T09:18:42.154Z,4.47
2023-03-05T09:19:33.641Z,4.56
2023-03-05T09:20:25.175Z,4.59
2023-03-05T09:21:17.761Z,4.63
2023-03-05T09:22:09.515Z,4.68
2023-03-05T09:23:01.804Z,4.60
2023-03-05T09:23:53.651Z,4.59
2023-03-05T09:24:45.237Z,4.61
2023-03-05T09:25:36.925Z,4.63
2023-03-05T09:26:28.751Z,4.65
2023-03-05T09:27:20.433Z,4.72
2023-03-05T09:28:12.037Z,4.76
2023-03-05T09:29:03.541Z,4.85
2023-03-05T09:29:55.567Z,4.88
2023-03-05T09:30:47.283Z,4.92
2023-03-05T09:31:39.198Z,5.00
2023-03-05T09:32:30.959Z,5.04
2023-03-05T09:33:22.715Z,5.05
2023-03-05T09:34:14.154Z,5.11
2023-03-05T09:35:07.149Z,5.12
2023-03-05T09:36:00.578Z,5.07
2023-03-05T09:36:52.243Z,5.07
2023-03-05T09:37:43.693Z,5.11
2023-03-05T09:38:36.582Z,5.16
2023-03-05T09:39:28.294Z,5.31
2023-03-05T09:40:22.456Z,5.37
2023-03-05T09:41:33.933Z,5.38
2023-03-05T09:42:59.305Z,5.35
2023-03-05T09:44:05.861Z,5.46
2023-03-05T09:45:16.807Z,5.52
2023-03-05T09:46:14.494Z,5.65
2023-03-05T09:47:43.631Z,5.66
2023-03-05T09:48:51.425Z,5.71
2023-03-05T09:50:05.026Z,5.60
2023-03-05T09:51:03.419Z,5.55
2023-03-05T09:52:07.328Z,5.58
2023-03-05T09:53:17.019Z,5.43
2023-03-05T09:54:18.856Z,5.32
2023-03-05T09:55:27.424Z,5.27
2023-03-05T09:56:34.542Z,5.34
2023-03-05T09:57:45.789Z,5.56
2023-03-05T09:58:40.328Z,5.55
2023-03-05T09:59:47.094Z,5.41
2023-03-05T10:00:41.106Z,5.35
2023-03-05T10:01:39.738Z,5.36
2023-03-05T10:02:36.787Z,5.26
2023-03-05T10:03:51.330Z,5.21
2023-03-05T10:04:52.355Z,5.17
2023-03-05T10:06:02.092Z,5.14
2023-03-05T10:07:04.855Z,5.08
2023-03-05T10:08:04.993Z,5.09
2023-03-05T10:09:11.364Z,5.07
2023-03-05T10:10:12.285Z,5.08
2023-03-05T10:11:19.043Z,5.15
2023-03-05T10:12:35.025Z,5.19
2023-03-05T10:13:32.838Z,5.25
2023-03-05T10:14:29.216Z,5.22
2023-03-05T10:15:43.552Z,5.12
2023-03-05T10:16:56.944Z,4.97
2023-03-05T10:17:57.263Z,4.94
2023-03-05T10:19:07.328Z,4.93
2023-03-05T10:20:10.898Z,4.87
2023-03-05T10:21:13.379Z,4.77
2023-03-05T10:22:20.486Z,4.66
2023-03-05T10:23:40.991Z,4.60
2023-03-05T10:25:10.621Z,4.16
2023-03-05T10:26:14.924Z,3.98
2023-03-05T10:27:18.105Z,3.86
2023-03-05T10:28:21.465Z,3.76
2023-03-05T10:30:05.573Z,3.77
2023-03-05T10:31:08.581Z,3.85
2023-03-05T10:32:17.680Z,3.90
2023-03-05T10:33:27.190Z,3.99
2023-03-05T10:34:46.290Z,4.01
2023-03-05T10:35:40.965Z,4.10
2023-03-05T10:37:01.639Z,4.14
2023-03-05T10:38:14.991Z,4.27
2023-03-05T10:39:42.213Z,4.49
2023-03-05T10:40:45.705Z,4.56
2023-03-05T10:42:02.565Z,4.59
2023-03-05T10:43:07.527Z,4.54
2023-03-05T10:44:09.274Z,4.57
2023-03-05T10:45:14.121Z,4.57
2023-03-05T10:46:06.118Z,4.52
2023-03-05T10:47:01.537Z,4.52
2023-03-05T10:48:16.299Z,4.55
2023-03-05T10:49:23.890Z,4.50
2023-03-05T10:50:20.291Z,4.49
2023-03-05T10:51:30.312Z,4.47
2023-03-05T10:52:40.422Z,4.32
2023-03-05T10:53:50.315Z,4.34
2023-03-05T10:54:43.676Z,4.30
2023-03-05T10:55:35.199Z,4.31
2023-03-05T10:56:29.336Z,4.26
2023-03-05T10:57:22.682Z,4.26
2023-03-05T10:58:16.892Z,4.26
2023-03-05T10:59:08.714Z,4.21
2023-03-05T11:00:06.466Z,4.20
2023-03-05T11:01:30.953Z,4.20
2023-03-05T11:02:23.403Z,4.14
2023-03-05T11:03:15.667Z,4.11
2023-03-05T11:04:28.245Z,4.11
2023-03-05T11:06:04.144Z,4.08
2023-03-05T11:06:55.869Z,4.07
2023-03-05T11:07:48.349Z,4.07
2023-03-05T11:08:40.260Z,4.09
2023-03-05T11:09:34.421Z,4.11
2023-03-05T11:10:26.081Z,4.14
2023-03-05T11:11:21.071Z,4.17
2023-03-05T11:12:21.844Z,4.22
2023-03-05T11:13:27.389Z,4.24
2023-03-05T11:14:30.754Z,4.27
2023-03-05T11:15:28.939Z,4.28
2023-03-05T11:16:28.231Z,4.35
2023-03-05T11:17:28.477Z,4.34
2023-03-05T11:18:22.193Z,4.35
2023-03-05T11:19:13.589Z,4.34
2023-03-05T11:20:26.127Z,4.31
2023-03-05T11:21:23.690Z,4.29
2023-03-05T11:22:21.379Z,4.27
2023-03-05T11:23:23.536Z,4.27
2023-03-05T11:24:18.739Z,4.27
2023-03-05T11:25:18.704Z,4.30
2023-03-05T11:26:13.039Z,4.33
2023-03-05T11:27:35.117Z,4.33
2023-03-05T11:28:33.938Z,4.28
2023-03-05T11:29:29.658Z,4.25
2023-03-05T11:30:27.795Z,4.22
2023-03-05T11:31:24.339Z,4.26
2023-03-05T11:32:22.591Z,4.33
2023-03-05T11:33:20.692Z,4.33
2023-03-05T11:34:18.150Z,4.30
2023-03-05T11:35:33.119Z,4.30
2023-03-05T11:36:26.394Z,4.23
2023-03-05T11:37:29.649Z,4.17
2023-03-05T11:38:27.179Z,4.18
2023-03-05T11:39:23.797Z,4.21
2023-03-05T11:40:20.618Z,4.18
2023-03-05T11:41:12.989Z,4.21
2023-03-05T11:42:17.206Z,4.24
2023-03-05T11:43:17.644Z,4.34
2023-03-05T11:44:45.590Z,4.34
2023-03-05T11:45:37.283Z,4.30
2023-03-05T11:46:37.287Z,4.26
2023-03-05T11:47:45.552Z,4.32
2023-03-05T11:48:39.898Z,4.33
2023-03-05T11:49:35.102Z,4.29
2023-03-05T11:50:33.676Z,4.30
2023-03-05T11:51:42.396Z,4.32
2023-03-05T11:52:49.325Z,4.30
2023-03-05T11:53:45.898Z,4.28
2023-03-05T11:54:58.951Z,4.27
2023-03-05T11:56:00.986Z,4.24
2023-03-05T11:56:53.405Z,4.30
2023-03-05T11:58:12.567Z,4.33
2023-03-05T11:59:16.542Z,4.21
2023-03-05T12:00:12.788Z,4.26
2023-03-05T12:01:17.731Z,4.20
2023-03-05T12:02:22.968Z,4.25
2023-03-05T12:03:19.064Z,4.22
2023-03-05T12:04:10.654Z,4.24
2023-03-05T12:05:03.980Z,4.26
2023-03-05T12:06:30.032Z,4.24
2023-03-05T12:07:35.157Z,4.25